Time;durP1;ratioP1;P1;durP2;ratioP2;P2;SDS_P1;SDS_P2;PMS_P1;PMS_P2;Temp;Humidity;BMP_temperature;BMP_pressure;BME280_temperature;BME280_humidity;BME280_pressure;Samples;Min_cycle;Max_cycle;Signal;HPM_P1;HPM_P2
2023/03/11 00:01:24;;;;;;;2.40;0.88;;;0.80;99.90;;;;;;5067503;28;20427;-86
2023/03/11 00:03:49;;;;;;;3.88;0.95;;;0.80;99.90;;;;;;5063915;28;20225;-86
2023/03/11 00:06:15;;;;;;;3.33;1.20;;;0.70;99.90;;;;;;5064637;28;20024;-86
2023/03/11 00:08:41;;;;;;;4.10;1.20;;;0.70;99.90;;;;;;5059486;28;20032;-85
2023/03/11 00:11:06;;;;;;;6.07;1.40;;;0.70;99.90;;;;;;5063203;28;20048;-86
2023/03/11 00:13:32;;;;;;;5.90;1.45;;;0.70;99.90;;;;;;5059139;28;20025;-86
2023/03/11 00:15:59;;;;;;;4.53;1.20;;;0.70;99.90;;;;;;5059969;28;20448;-86
2023/03/11 00:18:26;;;;;;;6.18;1.80;;;0.80;99.90;;;;;;5064955;28;20474;-86
2023/03/11 00:20:54;;;;;;;4.25;1.38;;;0.80;99.90;;;;;;5066252;28;20040;-85
2023/03/11 00:23:19;;;;;;;3.78;1.20;;;0.80;99.90;;;;;;5062010;28;20398;-86
2023/03/11 00:25:46;;;;;;;5.75;1.38;;;0.90;99.90;;;;;;5065650;28;20020;-86
2023/03/11 00:28:13;;;;;;;8.38;1.23;;;0.90;99.90;;;;;;5063608;28;20036;-86
2023/03/11 00:30:40;;;;;;;6.28;1.23;;;0.90;99.90;;;;;;5065582;28;20485;-85
2023/03/11 00:33:06;;;;;;;6.00;1.20;;;0.90;99.90;;;;;;5081555;28;20033;-85
2023/03/11 00:35:33;;;;;;;3.53;1.20;;;0.90;99.90;;;;;;5063641;28;20023;-86
2023/03/11 00:38:02;;;;;;;3.80;1.20;;;0.80;99.90;;;;;;5059754;28;20106;-86
2023/03/11 00:40:30;;;;;;;3.60;0.90;;;0.80;99.90;;;;;;5066303;28;20108;-86
2023/03/11 00:42:56;;;;;;;4.65;0.90;;;0.80;99.90;;;;;;5079607;28;20906;-86
2023/03/11 00:45:22;;;;;;;3.95;1.08;;;0.70;99.90;;;;;;5060027;28;20545;-86
2023/03/11 00:47:47;;;;;;;4.20;0.85;;;0.70;99.90;;;;;;5064147;28;20111;-86
2023/03/11 00:50:26;;;;;;;3.28;1.30;;;0.70;99.90;;;;;;5066123;28;20585;-86
2023/03/11 00:52:52;;;;;;;2.53;0.80;;;0.70;99.90;;;;;;5060122;28;20466;-86
2023/03/11 00:55:24;;;;;;;4.55;1.00;;;0.60;99.90;;;;;;5065658;28;20032;-86
2023/03/11 00:57:56;;;;;;;4.13;1.00;;;0.60;99.90;;;;;;5060376;28;20036;-86
2023/03/11 01:00:23;;;;;;;3.55;1.00;;;0.60;99.90;;;;;;5081043;28;21903;-87
2023/03/11 01:02:49;;;;;;;3.88;0.80;;;0.60;99.90;;;;;;5063573;28;20129;-86
2023/03/11 01:05:18;;;;;;;2.97;0.80;;;0.60;99.90;;;;;;5059953;28;20110;-87
2023/03/11 01:07:44;;;;;;;4.93;1.40;;;0.60;99.90;;;;;;5058733;28;20116;-87
2023/03/11 01:10:10;;;;;;;2.47;0.80;;;0.60;99.90;;;;;;5058106;28;20111;-87
2023/03/11 01:12:35;;;;;;;3.00;1.42;;;0.60;99.90;;;;;;5061231;28;20036;-87
2023/03/11 01:15:02;;;;;;;5.65;1.15;;;0.60;99.90;;;;;;5060127;28;20510;-87
2023/03/11 01:17:27;;;;;;;3.97;0.90;;;0.50;99.90;;;;;;5062753;28;20020;-86
2023/03/11 01:19:53;;;;;;;4.00;0.85;;;0.60;99.90;;;;;;5065297;28;20417;-87
2023/03/11 01:22:19;;;;;;;6.82;1.08;;;0.50;99.90;;;;;;5064739;28;20050;-86
2023/03/11 01:24:44;;;;;;;4.68;0.90;;;0.50;99.90;;;;;;5061990;28;20025;-87
2023/03/11 01:27:10;;;;;;;4.50;1.00;;;0.50;99.90;;;;;;5068399;28;20130;-86
2023/03/11 01:29:35;;;;;;;3.17;0.77;;;0.50;99.90;;;;;;5064652;28;20039;-87
2023/03/11 01:32:01;;;;;;;2.63;0.90;;;0.50;99.90;;;;;;5064791;28;20047;-86
2023/03/11 01:34:26;;;;;;;5.35;0.80;;;0.50;99.90;;;;;;5064238;28;20468;-86
2023/03/11 01:36:52;;;;;;;2.90;0.88;;;0.50;99.90;;;;;;5064340;28;20054;-85
2023/03/11 01:39:17;;;;;;;2.25;0.77;;;0.50;99.90;;;;;;5057106;28;20037;-87
2023/03/11 01:41:43;;;;;;;9.02;1.13;;;0.50;99.90;;;;;;5063982;28;20036;-87
2023/03/11 01:44:11;;;;;;;2.47;0.90;;;0.50;99.90;;;;;;5063905;28;20052;-87
2023/03/11 01:46:52;;;;;;;3.65;1.08;;;0.50;99.90;;;;;;5064122;28;21151;-86
2023/03/11 01:49:25;;;;;;;5.63;0.88;;;0.50;99.90;;;;;;5062449;28;20390;-87
2023/03/11 01:51:55;;;;;;;1.92;0.77;;;0.50;99.90;;;;;;5058508;28;20560;-85
2023/03/11 01:54:30;;;;;;;3.85;0.90;;;0.50;99.90;;;;;;5057999;28;20035;-86
2023/03/11 01:56:57;;;;;;;3.75;1.10;;;0.50;99.90;;;;;;5064937;28;20036;-85
2023/03/11 01:59:28;;;;;;;5.65;1.20;;;0.50;99.90;;;;;;5057401;28;20386;-87
2023/03/11 02:02:19;;;;;;;3.40;1.00;;;0.50;99.90;;;;;;5063036;28;20028;-86
2023/03/11 02:04:45;;;;;;;1.92;0.90;;;0.50;99.90;;;;;;5058629;28;20039;-86
2023/03/11 02:07:11;;;;;;;2.80;0.70;;;0.50;99.90;;;;;;5080453;28;20029;-87
2023/03/11 02:09:37;;;;;;;5.10;1.02;;;0.50;99.90;;;;;;5061899;28;20474;-86
2023/03/11 02:12:05;;;;;;;5.22;1.20;;;0.40;99.90;;;;;;5065112;28;20036;-86
2023/03/11 02:14:30;;;;;;;5.07;0.95;;;0.50;99.90;;;;;;5063904;28;20035;-86
2023/03/11 02:16:57;;;;;;;4.10;0.88;;;0.50;99.90;;;;;;5080684;28;20021;-87
2023/03/11 02:19:44;;;;;;;2.47;0.93;;;0.60;99.90;;;;;;5064748;28;20462;-86
2023/03/11 02:22:11;;;;;;;3.45;1.13;;;0.60;99.90;;;;;;5064247;28;20082;-86
2023/03/11 02:24:44;;;;;;;3.30;0.73;;;0.60;99.90;;;;;;5062258;28;20115;-85
2023/03/11 02:27:16;;;;;;;2.88;0.77;;;0.70;99.90;;;;;;5061465;28;20033;-85
2023/03/11 02:29:46;;;;;;;2.38;0.80;;;0.70;99.90;;;;;;5058657;28;20082;-86
2023/03/11 02:32:12;;;;;;;2.30;0.82;;;0.80;99.90;;;;;;5080221;28;20060;-87
2023/03/11 02:34:38;;;;;;;2.05;1.00;;;0.80;99.90;;;;;;5064491;28;20056;-86
2023/03/11 02:37:10;;;;;;;3.95;1.00;;;0.80;99.90;;;;;;5058209;28;20063;-86
2023/03/11 02:39:41;;;;;;;5.20;1.00;;;0.80;99.90;;;;;;5065161;28;20046;-85
2023/03/11 02:42:16;;;;;;;4.72;0.95;;;0.80;99.90;;;;;;5064188;28;20060;-86
2023/03/11 02:44:45;;;;;;;3.50;0.90;;;0.80;99.90;;;;;;5058236;28;20050;-86
2023/03/11 02:47:11;;;;;;;3.35;0.95;;;0.80;99.90;;;;;;5077812;28;20028;-85
2023/03/11 02:49:37;;;;;;;4.03;0.90;;;0.80;99.90;;;;;;5063388;28;20041;-85
2023/03/11 02:52:03;;;;;;;4.15;0.90;;;0.80;99.90;;;;;;5064306;28;20029;-86
2023/03/11 02:54:31;;;;;;;3.85;1.08;;;0.90;99.90;;;;;;5061002;28;20020;-86
2023/03/11 02:56:59;;;;;;;3.05;0.93;;;0.80;99.90;;;;;;5063396;28;20059;-86
2023/03/11 02:59:25;;;;;;;3.53;1.13;;;0.90;99.90;;;;;;5056422;28;20052;-86
2023/03/11 03:01:50;;;;;;;2.80;0.80;;;0.90;99.90;;;;;;5063059;28;20393;-87
2023/03/11 03:04:16;;;;;;;2.10;0.80;;;0.90;99.90;;;;;;5063525;28;20101;-86
2023/03/11 03:06:41;;;;;;;3.70;0.90;;;0.90;99.90;;;;;;5064003;28;20028;-87
2023/03/11 03:09:07;;;;;;;3.28;0.80;;;0.90;99.90;;;;;;5056994;28;20450;-86
2023/03/11 03:11:33;;;;;;;4.00;0.90;;;0.90;99.90;;;;;;5078676;28;20029;-86
2023/03/11 03:13:58;;;;;;;3.17;1.08;;;0.90;99.90;;;;;;5058383;28;20036;-86
2023/03/11 03:16:24;;;;;;;3.75;1.08;;;0.90;99.90;;;;;;5062192;28;20362;-86
2023/03/11 03:18:51;;;;;;;2.08;0.70;;;0.90;99.90;;;;;;5061741;28;20028;-86
2023/03/11 03:21:17;;;;;;;4.03;0.85;;;0.90;99.90;;;;;;5063706;28;20539;-86
2023/03/11 03:23:42;;;;;;;2.47;1.00;;;0.90;99.90;;;;;;5061933;28;20493;-86
2023/03/11 03:26:12;;;;;;;5.03;0.90;;;0.90;99.90;;;;;;5062633;28;20027;-86
2023/03/11 03:28:38;;;;;;;5.63;0.82;;;0.90;99.90;;;;;;5061429;28;20043;-85
2023/03/11 03:31:08;;;;;;;2.60;0.88;;;0.80;99.90;;;;;;5061247;28;20033;-85
2023/03/11 03:33:34;;;;;;;2.80;0.70;;;0.80;99.90;;;;;;5061534;28;20025;-85
2023/03/11 03:36:00;;;;;;;2.53;0.88;;;0.80;99.90;;;;;;5064047;28;20029;-86
2023/03/11 03:38:25;;;;;;;2.33;1.10;;;0.80;99.90;;;;;;5060876;28;20021;-85
2023/03/11 03:40:51;;;;;;;2.70;0.80;;;0.70;99.90;;;;;;5078380;28;20028;-85
2023/03/11 03:43:16;;;;;;;2.85;0.90;;;0.70;99.90;;;;;;5060732;28;20561;-85
2023/03/11 03:45:42;;;;;;;1.75;0.60;;;0.70;99.90;;;;;;5056523;28;20024;-84
2023/03/11 03:48:10;;;;;;;2.67;0.80;;;0.60;99.90;;;;;;5063132;28;20035;-85
2023/03/11 03:50:38;;;;;;;3.85;1.20;;;0.60;99.90;;;;;;5056861;28;20078;-85
2023/03/11 03:53:03;;;;;;;1.73;0.73;;;0.50;99.90;;;;;;5056756;28;20030;-86
2023/03/11 03:55:31;;;;;;;2.90;0.60;;;0.50;99.90;;;;;;5060426;28;20099;-86
2023/03/11 03:57:56;;;;;;;1.65;0.75;;;0.50;99.90;;;;;;5056996;28;20028;-86
2023/03/11 04:00:22;;;;;;;3.53;0.70;;;0.50;99.90;;;;;;5061454;28;20025;-86
2023/03/11 04:02:47;;;;;;;2.53;0.60;;;0.50;99.90;;;;;;5063683;28;20041;-86
2023/03/11 04:05:13;;;;;;;3.20;0.65;;;0.50;99.90;;;;;;5058073;28;20029;-86
2023/03/11 04:07:39;;;;;;;1.80;0.60;;;0.50;99.90;;;;;;5063058;28;20029;-86
2023/03/11 04:10:05;;;;;;;1.13;0.60;;;0.50;99.90;;;;;;5057194;28;20052;-86
2023/03/11 04:12:31;;;;;;;3.08;1.08;;;0.50;99.90;;;;;;5057239;28;20059;-86
2023/03/11 04:14:56;;;;;;;2.78;1.55;;;0.60;99.90;;;;;;5063096;28;20044;-86
2023/03/11 04:17:22;;;;;;;4.35;1.02;;;0.60;99.90;;;;;;5061675;28;20037;-86
2023/03/11 04:19:47;;;;;;;3.42;0.93;;;0.60;99.90;;;;;;5060096;28;20104;-86
2023/03/11 04:22:13;;;;;;;2.25;1.00;;;0.50;99.90;;;;;;5061617;28;20040;-85
2023/03/11 04:24:39;;;;;;;3.92;0.90;;;0.50;99.90;;;;;;5061769;28;20398;-86
2023/03/11 04:27:04;;;;;;;2.58;1.10;;;0.60;99.90;;;;;;5056324;28;20029;-85
2023/03/11 04:29:30;;;;;;;3.90;1.73;;;0.60;99.90;;;;;;5060927;28;20563;-84
2023/03/11 04:31:56;;;;;;;2.53;0.90;;;0.50;99.90;;;;;;5062060;28;20021;-85
2023/03/11 04:34:21;;;;;;;4.38;1.73;;;0.50;99.90;;;;;;5056354;28;20034;-86
2023/03/11 04:36:49;;;;;;;4.40;1.10;;;0.50;99.90;;;;;;5056182;28;20107;-85
2023/03/11 04:39:15;;;;;;;1.90;0.80;;;0.40;99.90;;;;;;5062043;28;20397;-85
2023/03/11 04:41:41;;;;;;;3.90;0.90;;;0.40;99.90;;;;;;5062926;28;20033;-86
2023/03/11 04:44:06;;;;;;;3.10;0.90;;;0.40;99.90;;;;;;5063310;28;20421;-87
2023/03/11 04:46:32;;;;;;;3.15;0.70;;;0.50;99.90;;;;;;5057644;28;20033;-86
2023/03/11 04:48:57;;;;;;;2.35;0.77;;;0.50;99.90;;;;;;5062256;28;20028;-86
2023/03/11 04:51:23;;;;;;;2.78;1.02;;;0.50;99.90;;;;;;5064464;28;20025;-87
2023/03/11 04:53:48;;;;;;;1.90;1.00;;;0.40;99.90;;;;;;5059557;28;20020;-83
2023/03/11 04:56:14;;;;;;;3.72;0.65;;;0.40;99.90;;;;;;5059076;28;20036;-86
2023/03/11 04:58:39;;;;;;;2.92;0.90;;;0.40;99.90;;;;;;5066518;28;20040;-85
2023/03/11 05:01:05;;;;;;;4.38;0.90;;;0.40;99.90;;;;;;5058651;28;20040;-87
2023/03/11 05:03:30;;;;;;;1.65;0.70;;;0.40;99.90;;;;;;5064371;28;20044;-85
2023/03/11 05:05:56;;;;;;;1.65;0.73;;;0.30;99.90;;;;;;5059525;28;20021;-84
2023/03/11 05:08:23;;;;;;;2.88;0.80;;;0.30;99.90;;;;;;5065846;28;20059;-86
2023/03/11 05:10:50;;;;;;;2.33;0.98;;;0.30;99.90;;;;;;5080666;28;20090;-85
2023/03/11 05:13:16;;;;;;;2.08;0.82;;;0.30;99.90;;;;;;5064108;28;20032;-86
2023/03/11 05:15:43;;;;;;;3.30;1.13;;;0.30;99.90;;;;;;5066199;28;20028;-86
2023/03/11 05:18:09;;;;;;;3.47;1.00;;;0.30;99.90;;;;;;5082259;28;20429;-85
2023/03/11 05:20:34;;;;;;;4.35;1.10;;;0.20;99.90;;;;;;5061426;28;20086;-85
2023/03/11 05:23:00;;;;;;;3.08;0.93;;;0.20;99.90;;;;;;5064816;28;20060;-83
2023/03/11 05:25:26;;;;;;;2.83;1.02;;;0.20;99.90;;;;;;5062808;28;20031;-85
2023/03/11 05:27:52;;;;;;;3.75;0.82;;;0.20;99.90;;;;;;5059594;28;20032;-85
2023/03/11 05:30:17;;;;;;;3.70;1.00;;;0.10;99.90;;;;;;5063271;28;20081;-84
2023/03/11 05:32:43;;;;;;;3.40;0.90;;;0.10;99.90;;;;;;5059214;28;20048;-84
2023/03/11 05:35:09;;;;;;;3.28;0.80;;;0.00;99.90;;;;;;5059436;28;20516;-85
2023/03/11 05:37:37;;;;;;;2.17;0.90;;;-0.10;99.90;;;;;;5061492;28;20032;-85
2023/03/11 05:40:05;;;;;;;3.13;1.02;;;-0.10;99.90;;;;;;5064042;28;20032;-86
2023/03/11 05:42:31;;;;;;;4.63;1.10;;;-0.10;99.90;;;;;;5063799;28;20042;-85
2023/03/11 05:44:57;;;;;;;4.35;1.15;;;-0.20;99.90;;;;;;5069792;28;20024;-84
2023/03/11 05:47:22;;;;;;;2.38;0.95;;;-0.10;99.90;;;;;;5059288;28;20470;-84
2023/03/11 05:49:48;;;;;;;2.15;1.20;;;-0.10;99.90;;;;;;5064054;28;20086;-85
2023/03/11 05:52:14;;;;;;;2.95;0.90;;;-0.10;99.90;;;;;;5061115;28;20024;-85
2023/03/11 05:54:40;;;;;;;1.98;0.80;;;-0.20;99.90;;;;;;5064921;28;20071;-85
2023/03/11 05:57:05;;;;;;;2.53;0.82;;;-0.10;99.90;;;;;;5080343;28;20046;-85
2023/03/11 05:59:31;;;;;;;2.50;0.90;;;-0.20;99.90;;;;;;5062535;28;20064;-86
2023/03/11 06:01:57;;;;;;;3.03;0.93;;;-0.20;99.90;;;;;;5063939;28;20123;-86
2023/03/11 06:04:23;;;;;;;5.57;0.90;;;-0.20;99.90;;;;;;5065040;28;20029;-86
2023/03/11 06:06:48;;;;;;;3.05;1.00;;;-0.20;99.90;;;;;;5062141;28;20493;-85
2023/03/11 06:09:14;;;;;;;1.88;0.90;;;-0.20;99.90;;;;;;5059044;28;20271;-85
2023/03/11 06:11:41;;;;;;;3.85;1.10;;;-0.20;99.90;;;;;;5073084;28;20056;-85
2023/03/11 06:14:09;;;;;;;3.65;1.10;;;-0.20;99.90;;;;;;5062171;28;20032;-86
2023/03/11 06:16:35;;;;;;;3.65;1.00;;;-0.20;99.90;;;;;;5079130;28;20060;-84
2023/03/11 06:19:00;;;;;;;3.15;1.10;;;-0.20;99.90;;;;;;5063982;28;20495;-85
2023/03/11 06:21:26;;;;;;;3.83;0.90;;;-0.20;99.90;;;;;;5062807;28;20016;-84
2023/03/11 06:23:52;;;;;;;4.93;1.20;;;-0.30;99.90;;;;;;5057742;28;20125;-84
2023/03/11 06:26:20;;;;;;;2.08;1.00;;;-0.30;99.90;;;;;;5063476;28;20517;-85
2023/03/11 06:28:47;;;;;;;4.00;1.33;;;-0.30;99.90;;;;;;5057703;28;20021;-84
2023/03/11 06:31:17;;;;;;;2.70;1.10;;;-0.20;99.90;;;;;;5079770;28;20052;-85
2023/03/11 06:33:43;;;;;;;2.65;1.10;;;-0.30;99.90;;;;;;5063085;28;20464;-84
2023/03/11 06:36:11;;;;;;;3.03;1.00;;;-0.30;99.90;;;;;;5055689;28;20530;-85
2023/03/11 06:38:36;;;;;;;3.53;1.13;;;-0.30;99.90;;;;;;5056117;28;20047;-85
2023/03/11 06:41:06;;;;;;;3.90;1.27;;;-0.20;99.90;;;;;;5056836;28;20397;-83
2023/03/11 06:43:33;;;;;;;4.03;1.23;;;-0.30;99.90;;;;;;5057744;28;20083;-84
2023/03/11 06:45:59;;;;;;;4.90;1.20;;;-0.20;99.90;;;;;;5057017;28;20024;-84
2023/03/11 06:48:25;;;;;;;2.17;1.13;;;-0.20;99.90;;;;;;5055961;28;20497;-84
2023/03/11 06:50:59;;;;;;;3.97;1.33;;;-0.20;99.90;;;;;;5069164;28;20020;-85
2023/03/11 06:53:25;;;;;;;3.05;1.10;;;-0.20;99.90;;;;;;5058575;28;20301;-83
2023/03/11 06:56:02;;;;;;;5.18;1.27;;;-0.20;99.90;;;;;;5078386;28;20059;-84
2023/03/11 06:58:29;;;;;;;2.08;0.88;;;-0.20;99.90;;;;;;5056610;28;20406;-85
2023/03/11 07:00:59;;;;;;;2.90;1.00;;;-0.20;99.90;;;;;;5064539;28;20543;-86
2023/03/11 07:03:25;;;;;;;4.43;1.20;;;-0.20;99.90;;;;;;5062000;28;20140;-84
2023/03/11 07:05:51;;;;;;;2.25;1.10;;;-0.20;99.90;;;;;;5064200;28;20365;-85
2023/03/11 07:08:17;;;;;;;2.70;1.20;;;-0.10;99.90;;;;;;5061134;28;20033;-85
2023/03/11 07:10:43;;;;;;;3.85;1.20;;;-0.10;99.90;;;;;;5060840;28;20479;-86
2023/03/11 07:13:11;;;;;;;2.42;1.02;;;-0.10;99.90;;;;;;5056865;28;20116;-86
2023/03/11 07:15:37;;;;;;;2.38;1.00;;;-0.10;99.90;;;;;;5063241;28;20039;-86
2023/03/11 07:18:02;;;;;;;2.60;1.05;;;-0.10;99.90;;;;;;5062089;28;20025;-85
2023/03/11 07:20:28;;;;;;;2.22;0.90;;;-0.10;99.90;;;;;;5064113;28;20025;-86
2023/03/11 07:22:53;;;;;;;1.88;1.10;;;-0.10;99.90;;;;;;5057737;28;20040;-85
2023/03/11 07:25:19;;;;;;;3.50;1.23;;;-0.10;99.90;;;;;;5060870;28;20029;-87
2023/03/11 07:27:45;;;;;;;4.55;1.17;;;0.00;99.90;;;;;;5062335;28;20024;-85
2023/03/11 07:30:11;;;;;;;3.10;1.00;;;0.00;99.90;;;;;;5060474;28;20020;-86
2023/03/11 07:32:36;;;;;;;3.20;0.90;;;0.00;99.90;;;;;;5063018;28;20036;-86
2023/03/11 07:35:02;;;;;;;3.13;0.98;;;0.00;99.90;;;;;;5057993;28;20441;-86
2023/03/11 07:37:27;;;;;;;2.95;0.95;;;0.00;99.90;;;;;;5056571;28;20036;-87
2023/03/11 07:39:53;;;;;;;2.70;0.80;;;0.00;99.90;;;;;;5062185;28;20069;-87
2023/03/11 07:42:19;;;;;;;2.90;1.17;;;0.10;99.90;;;;;;5077931;28;20494;-88
2023/03/11 07:44:44;;;;;;;2.92;0.95;;;0.10;99.90;;;;;;5062728;28;20032;-87
2023/03/11 07:47:10;;;;;;;2.70;0.73;;;0.10;99.90;;;;;;5062183;28;20024;-87
2023/03/11 07:49:35;;;;;;;2.78;0.90;;;0.10;99.90;;;;;;5062014;28;20027;-87
2023/03/11 07:52:01;;;;;;;1.83;0.75;;;0.20;99.90;;;;;;5057622;28;20024;-86
2023/03/11 07:54:27;;;;;;;2.05;0.90;;;0.20;99.90;;;;;;5056687;28;20513;-86
2023/03/11 07:56:52;;;;;;;4.60;0.90;;;0.20;99.90;;;;;;5062419;28;20027;-86
2023/03/11 07:59:18;;;;;;;2.50;0.90;;;0.30;99.90;;;;;;5061811;28;20082;-86
2023/03/11 08:01:46;;;;;;;3.35;1.10;;;0.30;99.90;;;;;;5063515;28;20048;-86
2023/03/11 08:04:15;;;;;;;1.75;0.90;;;0.30;99.90;;;;;;5060236;28;20129;-87
2023/03/11 08:06:43;;;;;;;1.90;0.73;;;0.30;99.90;;;;;;5060201;28;20028;-88
2023/03/11 08:09:09;;;;;;;3.60;1.20;;;0.40;99.90;;;;;;5061995;28;20574;-86
2023/03/11 08:11:35;;;;;;;3.08;1.13;;;0.40;99.90;;;;;;5059305;28;20019;-86
2023/03/11 08:14:01;;;;;;;3.53;0.95;;;0.50;99.90;;;;;;5077983;28;20032;-87
2023/03/11 08:16:27;;;;;;;4.65;1.17;;;0.50;99.90;;;;;;5057210;28;20032;-87
2023/03/11 08:18:53;;;;;;;2.75;1.00;;;0.60;99.90;;;;;;5056325;28;20031;-88
2023/03/11 08:21:25;;;;;;;5.15;1.30;;;0.60;99.90;;;;;;5060704;28;20088;-87
2023/03/11 08:23:51;;;;;;;3.90;1.30;;;0.70;99.90;;;;;;5061291;28;20029;-87
2023/03/11 08:26:20;;;;;;;3.38;1.08;;;0.80;99.90;;;;;;5062189;28;20032;-87
2023/03/11 08:28:47;;;;;;;3.78;0.90;;;0.80;99.90;;;;;;5064094;28;20111;-86
2023/03/11 08:31:19;;;;;;;4.57;1.27;;;0.90;99.90;;;;;;5066466;28;21958;-86
2023/03/11 08:33:48;;;;;;;2.33;1.20;;;1.00;99.90;;;;;;5082420;28;20502;-88
2023/03/11 08:36:14;;;;;;;4.45;1.60;;;1.00;99.90;;;;;;5081292;28;20083;-87
2023/03/11 08:38:40;;;;;;;3.47;1.00;;;1.10;99.90;;;;;;5062883;28;20458;-87
2023/03/11 08:41:06;;;;;;;2.88;1.15;;;1.10;99.90;;;;;;5061167;28;20024;-88
2023/03/11 08:43:32;;;;;;;2.28;1.00;;;1.20;99.90;;;;;;5063707;28;20131;-87
2023/03/11 08:46:00;;;;;;;2.85;1.10;;;1.30;99.90;;;;;;5060981;28;20486;-88
2023/03/11 08:48:25;;;;;;;3.53;1.10;;;1.30;99.90;;;;;;5060977;28;20025;-87
2023/03/11 08:50:51;;;;;;;3.67;1.17;;;1.40;99.90;;;;;;5063652;28;20528;-87
2023/03/11 08:53:17;;;;;;;5.05;2.13;;;1.40;99.90;;;;;;5065687;28;20469;-88
2023/03/11 08:55:42;;;;;;;2.10;1.10;;;1.50;99.90;;;;;;5061035;28;20406;-88
2023/03/11 08:58:11;;;;;;;4.10;1.00;;;1.60;99.90;;;;;;5066019;28;20031;-87
2023/03/11 09:00:36;;;;;;;2.70;1.50;;;1.70;99.90;;;;;;5060991;28;20024;-87
2023/03/11 09:03:02;;;;;;;2.75;1.20;;;1.80;99.90;;;;;;5063218;28;20036;-87
2023/03/11 09:05:27;;;;;;;3.47;1.40;;;1.80;99.90;;;;;;5064959;28;20554;-88
2023/03/11 09:07:53;;;;;;;4.97;1.20;;;1.90;99.90;;;;;;5066306;28;20161;-88
2023/03/11 09:10:18;;;;;;;2.25;1.23;;;2.00;99.90;;;;;;5064316;28;20131;-88
2023/03/11 09:12:44;;;;;;;3.90;1.30;;;2.20;99.90;;;;;;5066552;28;20511;-87
2023/03/11 09:15:10;;;;;;;2.08;1.10;;;2.30;99.90;;;;;;5064543;28;20171;-88
2023/03/11 09:17:36;;;;;;;4.53;1.35;;;2.30;99.90;;;;;;5065131;28;20036;-86
2023/03/11 09:20:02;;;;;;;2.90;0.90;;;2.40;99.90;;;;;;5067628;28;20170;-87
2023/03/11 09:22:32;;;;;;;3.03;0.90;;;2.40;99.90;;;;;;5060091;28;20570;-87
2023/03/11 09:24:58;;;;;;;1.52;0.88;;;2.40;99.90;;;;;;5065168;28;20021;-87
2023/03/11 09:27:23;;;;;;;2.17;1.10;;;2.50;99.90;;;;;;5063734;28;20024;-87
2023/03/11 09:29:49;;;;;;;2.08;0.80;;;2.60;99.90;;;;;;5065020;28;20590;-88
2023/03/11 09:32:15;;;;;;;3.05;0.98;;;2.70;99.90;;;;;;5061872;28;20473;-87
2023/03/11 09:34:40;;;;;;;4.22;0.82;;;2.90;99.90;;;;;;5065672;28;20024;-87
2023/03/11 09:37:07;;;;;;;2.33;0.80;;;3.10;99.90;;;;;;5065425;28;20489;-89
2023/03/11 09:39:32;;;;;;;3.22;1.05;;;3.70;99.90;;;;;;5065103;28;20765;-88
2023/03/11 09:42:05;;;;;;;4.03;1.17;;;4.30;99.90;;;;;;5059551;28;20035;-88
2023/03/11 09:44:41;;;;;;;1.53;0.70;;;5.00;99.90;;;;;;5065636;28;20043;-88
2023/03/11 09:47:07;;;;;;;1.98;0.80;;;5.60;99.90;;;;;;5066140;28;20099;-88
2023/03/11 09:49:56;;;;;;;2.25;0.68;;;6.80;99.90;;;;;;5066089;28;20039;-89
2023/03/11 09:52:31;;;;;;;1.15;0.60;;;7.60;99.90;;;;;;5080231;28;20063;-90
2023/03/11 09:54:59;;;;;;;1.15;0.63;;;8.10;99.90;;;;;;5061204;28;20017;-90
2023/03/11 09:57:29;;;;;;;2.30;0.60;;;8.50;99.90;;;;;;5082158;28;20032;-90
2023/03/11 09:59:55;;;;;;;1.95;0.70;;;8.70;99.90;;;;;;5067584;28;20021;-89
2023/03/11 10:02:26;;;;;;;2.90;0.70;;;8.50;99.90;;;;;;5061994;28;20066;-90
2023/03/11 10:05:29;;;;;;;2.78;0.60;;;8.30;99.90;;;;;;5061528;28;20048;-88
2023/03/11 10:08:25;;;;;;;1.92;0.57;;;8.50;99.90;;;;;;5069939;28;20022;-90
2023/03/11 10:11:19;;;;;;;2.65;0.50;;;9.60;99.90;;;;;;5062293;28;20035;-89
2023/03/11 10:14:15;;;;;;;1.27;0.40;;;10.80;99.90;;;;;;5043865;28;20378;-90
2023/03/11 10:16:55;;;;;;;1.88;0.95;;;12.00;99.90;;;;;;5063519;28;20044;-90
2023/03/11 10:19:32;;;;;;;3.65;0.77;;;12.70;99.90;;;;;;5064894;28;20046;-90
2023/03/11 10:22:18;;;;;;;0.90;0.40;;;12.90;99.90;;;;;;5059451;28;20024;-90
2023/03/11 10:24:47;;;;;;;2.63;0.82;;;13.40;99.90;;;;;;5066042;28;20028;-89
2023/03/11 10:27:29;;;;;;;3.53;0.50;;;13.40;99.90;;;;;;5065280;28;20033;-90
2023/03/11 10:30:01;;;;;;;2.17;0.57;;;13.40;99.90;;;;;;5059496;28;20020;-91
2023/03/11 10:32:38;;;;;;;3.65;0.60;;;13.10;99.90;;;;;;5064867;28;20493;-89
2023/03/11 10:35:11;;;;;;;1.88;0.50;;;13.00;99.90;;;;;;5063650;28;20116;-90
2023/03/11 10:37:44;;;;;;;1.58;0.50;;;13.10;99.90;;;;;;5064979;28;20020;-91
2023/03/11 10:40:43;;;;;;;2.95;0.43;;;13.10;99.90;;;;;;5059976;28;20091;-91
2023/03/11 10:43:28;;;;;;;2.55;0.40;;;13.00;99.90;;;;;;5021968;28;20040;-91
2023/03/11 10:45:54;;;;;;;3.22;0.40;;;13.10;99.90;;;;;;5065964;28;20549;-90
2023/03/11 10:48:21;;;;;;;2.60;0.40;;;12.90;99.90;;;;;;5065359;28;20103;-89
2023/03/11 10:51:13;;;;;;;1.08;0.30;;;13.00;99.90;;;;;;5065594;28;20531;-90
2023/03/11 10:54:05;;;;;;;3.00;0.40;;;12.90;99.90;;;;;;5064416;28;20035;-89
2023/03/11 10:56:41;;;;;;;2.22;0.80;;;12.10;99.90;;;;;;5054940;28;20131;-90
2023/03/11 10:59:29;;;;;;;1.15;0.30;;;11.40;99.90;;;;;;5059480;28;20032;-90
2023/03/11 11:01:57;;;;;;;1.13;0.30;;;11.30;99.90;;;;;;5064476;28;20029;-89
2023/03/11 11:04:37;;;;;;;2.17;0.40;;;11.60;99.90;;;;;;5059375;28;20123;-90
2023/03/11 11:07:42;;;;;;;2.40;0.50;;;11.80;99.90;;;;;;5063384;28;20222;-89
2023/03/11 11:10:11;;;;;;;2.17;0.50;;;11.80;99.90;;;;;;5019162;28;20021;-90
2023/03/11 11:12:49;;;;;;;3.20;0.50;;;11.60;99.90;;;;;;5004127;28;20330;-90
2023/03/11 11:15:26;;;;;;;2.90;0.40;;;11.50;99.90;;;;;;5034494;28;20470;-90
2023/03/11 11:17:57;;;;;;;3.47;0.60;;;11.90;99.90;;;;;;5058533;28;20028;-90
2023/03/11 11:20:24;;;;;;;3.03;0.50;;;12.50;99.90;;;;;;5062491;28;20174;-90
2023/03/11 11:22:54;;;;;;;2.08;0.40;;;13.30;99.90;;;;;;5061850;28;20436;-88
2023/03/11 11:25:35;;;;;;;1.20;0.30;;;14.10;99.90;;;;;;5060635;28;20024;-89
2023/03/11 11:28:14;;;;;;;1.83;0.40;;;14.80;99.90;;;;;;5058058;28;20029;-89
2023/03/11 11:30:58;;;;;;;2.63;0.40;;;15.30;99.90;;;;;;5064048;28;20763;-89
2023/03/11 11:33:38;;;;;;;;;;;15.70;99.90;;;;;;5061968;28;20032;-90
2023/03/11 11:36:05;;;;;;;1.48;0.50;;;16.10;99.90;;;;;;5063827;28;19912;-87
2023/03/11 11:38:31;;;;;;;0.73;0.40;;;16.60;99.90;;;;;;5056208;28;20078;-88
2023/03/11 11:41:01;;;;;;;2.45;0.40;;;16.80;99.90;;;;;;5063518;28;20642;-88
2023/03/11 11:43:45;;;;;;;1.02;0.40;;;17.10;99.90;;;;;;5063195;28;20031;-90
2023/03/11 11:46:20;;;;;;;2.35;0.60;;;17.30;99.90;;;;;;5059950;28;20025;-88
2023/03/11 11:49:11;;;;;;;1.98;0.50;;;17.00;99.90;;;;;;5060975;28;20466;-88
2023/03/11 11:51:47;;;;;;;2.22;0.50;;;17.00;99.90;;;;;;5078484;28;20037;-87
2023/03/11 11:54:38;;;;;;;1.67;0.60;;;17.00;99.90;;;;;;5057523;28;20051;-88
2023/03/11 11:57:20;;;;;;;2.47;0.60;;;17.20;99.90;;;;;;5054269;28;20044;-87
2023/03/11 11:59:46;;;;;;;1.88;0.52;;;17.10;99.90;;;;;;5059786;28;20075;-87
2023/03/11 12:02:15;;;;;;;1.60;0.40;;;17.10;99.90;;;;;;5064846;28;20032;-88
2023/03/11 12:04:53;;;;;;;2.25;0.60;;;17.30;99.90;;;;;;5064297;28;20025;-88
2023/03/11 12:07:38;;;;;;;1.85;0.40;;;17.30;99.90;;;;;;5066797;28;20078;-89
2023/03/11 12:10:21;;;;;;;2.47;0.80;;;17.30;99.90;;;;;;5065784;28;20093;-88
2023/03/11 12:13:21;;;;;;;2.25;0.60;;;17.30;99.90;;;;;;5066500;28;20059;-87
2023/03/11 12:16:23;;;;;;;2.70;0.73;;;17.30;99.90;;;;;;5067173;28;20036;-87
2023/03/11 12:18:59;;;;;;;1.48;0.70;;;17.40;99.90;;;;;;5065415;28;20428;-88
2023/03/11 12:21:42;;;;;;;1.00;0.43;;;17.30;99.90;;;;;;5060165;28;20618;-87
2023/03/11 12:24:14;;;;;;;2.17;0.40;;;17.60;99.90;;;;;;5063741;28;20024;-88
2023/03/11 12:26:42;;;;;;;2.17;0.33;;;18.10;99.90;;;;;;5064433;28;20097;-87
2023/03/11 12:29:32;;;;;;;2.50;0.50;;;18.60;99.90;;;;;;5062176;28;20034;-87
2023/03/11 12:32:00;;;;;;;2.63;0.40;;;18.90;99.90;;;;;;5081404;28;20044;-87
2023/03/11 12:34:27;;;;;;;0.95;0.38;;;19.00;99.90;;;;;;5065177;28;20020;-88
2023/03/11 12:36:56;;;;;;;1.58;0.40;;;19.20;99.90;;;;;;5065378;28;20056;-88
2023/03/11 12:39:33;;;;;;;1.40;0.32;;;19.40;99.90;;;;;;5062849;28;20028;-89
2023/03/11 12:42:10;;;;;;;2.70;0.40;;;19.70;99.90;;;;;;5083653;28;20053;-89
2023/03/11 12:44:40;;;;;;;1.73;0.57;;;20.00;99.90;;;;;;5066977;28;20032;-88
2023/03/11 12:47:17;;;;;;;0.73;0.28;;;20.00;99.90;;;;;;5060171;28;20035;-88
2023/03/11 12:49:56;;;;;;;1.10;0.50;;;19.90;99.90;;;;;;5066552;28;20028;-90
2023/03/11 12:52:25;;;;;;;1.40;0.30;;;20.00;99.90;;;;;;5065360;28;20048;-91
2023/03/11 12:54:54;;;;;;;2.47;0.57;;;20.20;99.90;;;;;;5062666;28;20031;-87
2023/03/11 12:57:19;;;;;;;3.95;0.60;;;20.50;99.90;;;;;;5065804;28;20029;-88
2023/03/11 13:00:08;;;;;;;1.75;0.60;;;20.30;99.90;;;;;;5061278;28;20036;-88
2023/03/11 13:03:06;;;;;;;2.17;0.65;;;19.90;99.90;;;;;;5069004;28;20696;-87
2023/03/11 13:05:52;;;;;;;2.08;0.50;;;19.00;99.30;;;;;;5051313;28;20504;-88